• Join FlightAware (Why Join?)
  • Login
  • US Flag 
08:33PM EDT


 

Airport Tracker/Info


-or-


 

Live Flight TrackerFlight Track Log ✈ ASQ5941 ✈ 09-Jul-2013 ✈ KORD - KAVP

Flight Track Log - Related Links

Times and Time Zones

All times are in EDT time to prevent confusion due to time zone crossing. See the ASQ5941 flight status page for this flight to view local times or setup timezone preferences in your user account.

Time Position Orientation Groundspeed Altitude Reporting Facility
EDT Latitude Longitude Course Direction KTS MPH feet Rate Location/Type
03:52PM 42.0167 -87.9500 81° East 189 217 2,700  Level Chicago TRACON
03:53PM 42.0667 -87.9000 37° Northeast 253 291 3,900 1,200 Climbing Chicago TRACON
03:54PM 42.1167 -87.8500 37° Northeast 275 316 5,000 1,500 Climbing Chicago TRACON
03:55PM 42.0412 -87.4634 83° East  Level FlightAware Approximate
03:56PM 42.0583 -87.3133 78° East  Level FlightAware Approximate
03:56PM 42.2008 -87.7536 40° Northeast 281 323 7,500  Level Chicago Center
03:57PM 42.0811 -87.1644 78° East  Level FlightAware Approximate
03:57PM 42.2253 -87.6217 76° East 313 360 9,700  Level Chicago Center
03:58PM 42.0789 -87.0173 81° East  Level Estimated
03:58PM 42.2319 -87.5008 86° East 321 369 11,600  Level Chicago Center
04:00PM 42.2422 -87.2517 87° East 337 388 14,900 1,560 Climbing Chicago Center
04:01PM 42.2514 -87.1231 84° East 344 396 16,500 1,440 Climbing Chicago Center
04:02PM 42.2600 -86.9936 85° East 347 399 17,900 1,200 Climbing Chicago Center
04:03PM 42.2836 -86.8361 78° East 361 415 19,000 780 Climbing Chicago Center
04:04PM 42.3128 -86.6942 74° East 390 449 19,600 720 Climbing Chicago Center
04:05PM 42.3436 -86.5442 74° East 407 468 20,600 960 Climbing Chicago Center
04:06PM 42.3742 -86.3967 74° East 409 471 21,600 960 Climbing Chicago Center
04:07PM 42.4028 -86.2489 75° East 409 471 22,700 1,080 Climbing Chicago Center
04:08PM 42.4336 -86.1031 74° East 407 468 23,900 1,080 Climbing Chicago Center
04:09PM 42.4708 -85.9306 74° East 402 463 25,000 480 Climbing Chicago Center
04:10PM 42.4986 -85.7789 76° East 414 476 25,000 180 Level Chicago Center
04:11PM 42.5253 -85.6206 77° East 431 496 25,400 960 Climbing Chicago Center
04:12PM 42.5550 -85.4725 75° East 415 478 27,000 1,620 Climbing Chicago Center
04:13PM 42.5747 -85.3294 79° East 393 452 28,800 960 Climbing Chicago Center
04:14PM 42.5747 -85.1467 90° East 406 467 29,000 60 Climbing Chicago Center
04:15PM 42.5897 -84.9794 83° East 447 514 29,000  Level Chicago Center
04:16PM 42.6028 -84.8078 84° East 457 526 29,000 600 Level Chicago Center
04:17PM 42.6161 -84.6381 84° East 455 524 30,300 1,680 Climbing Chicago Center
04:19PM 42.6200 -84.4819 88° East 419 482 32,500 2,040 Climbing Chicago Center
04:19PM 42.6111 -84.3525 95° East 403 464 34,100 1,380 Climbing Cleveland Center
04:20PM 42.6008 -84.2167 96° East 377 434 35,000 420 Climbing Cleveland Center
04:21PM 42.5864 -84.0747 98° East 369 425 35,000  Level Cleveland Center
04:22PM 42.5722 -83.9189 97° East 387 445 35,000  Level Cleveland Center
04:23PM 42.5603 -83.7544 96° East 416 479 35,000  Level Cleveland Center
04:24PM 42.5442 -83.5819 97° East 438 504 35,000  Level Cleveland Center
04:25PM 42.5297 -83.4064 96° East 456 525 35,000  Level Cleveland Center
04:26PM 42.5147 -83.2481 97° East 467 537 35,000  Level Cleveland Center
04:27PM 42.4958 -83.0697 98° East 467 537 35,000  Level Cleveland Center
04:28PM 42.4786 -82.8972 98° East 467 537 35,000  Level Cleveland Center
04:29PM 42.4589 -82.7250 99° East 467 537 35,000  Level Cleveland Center
04:30PM 42.4433 -82.5500 97° East 467 537 35,000  Level Cleveland Center
04:31PM 42.4233 -82.3750 99° East 472 543 35,000  Level Cleveland Center
04:32PM 42.4072 -82.1972 97° East 467 537 35,000  Level Cleveland Center
04:33PM 42.3867 -82.0083 98° East 462 532 35,000  Level Cleveland Center
04:34PM 42.3678 -81.8367 98° East 467 537 35,000  Level Cleveland Center
04:35PM 42.3489 -81.6675 99° East 461 531 35,000  Level Cleveland Center
04:36PM 42.3336 -81.5017 97° East 456 525 35,000  Level Cleveland Center
04:37PM 42.3119 -81.3300 100° East 451 519 35,000  Level Cleveland Center
04:38PM 42.2942 -81.1642 98° East 451 519 35,000  Level Cleveland Center
04:39PM 42.2781 -81.0153 98° East 451 519 35,000 -120 Level Cleveland Center
04:40PM 42.2556 -80.8442 100° East 451 519 34,800 -660 Descending Cleveland Center
04:41PM 42.2350 -80.6700 99° East 460 529 33,700 -900 Descending Cleveland Center
04:42PM 42.2164 -80.4992 98° East 465 535 33,000 -360 Descending Cleveland Center
04:43PM 42.1931 -80.3281 100° East 465 535 33,000  Level Cleveland Center
04:44PM 42.1717 -80.1406 99° East 465 535 33,000  Level Cleveland Center
04:45PM 42.1544 -79.9808 98° East 465 535 33,000  Level Cleveland Center
04:46PM 42.1303 -79.8078 101° East 465 535 33,000  Level Cleveland Center
04:47PM 42.1103 -79.6344 99° East 465 535 33,000  Level Cleveland Center
04:48PM 42.0858 -79.4669 101° East 465 535 33,000  Level Cleveland Center
04:49PM 42.0656 -79.3022 99° East 460 529 33,000  Level Cleveland Center
04:50PM 42.0447 -79.1433 100° East 448 516 33,000  Level Cleveland Center
04:51PM 42.0217 -78.9817 101° East 442 509 33,000  Level Cleveland Center
04:52PM 41.9964 -78.8175 102° East 442 509 33,000  Level Cleveland Center
04:53PM 41.9689 -78.6506 102° East 447 514 33,000 -360 Level Cleveland Center
04:54PM 41.9450 -78.4783 101° East 457 526 32,300 -960 Descending Cleveland Center
04:55PM 41.9186 -78.3006 101° East 475 547 31,100 -1,440 Descending Cleveland Center
04:56PM 41.8900 -78.1314 103° East 470 541 29,500 -2,100 Descending Cleveland Center
04:57PM 41.8675 -78.0100 104° East 463 533 27,600 -3,180 Descending New York Center
04:58PM 41.8453 -77.8572 101° East 468 539 24,200 -3,300 Descending New York Center
04:59PM 41.8194 -77.6956 102° East 461 531 21,100 -1,680 Descending New York Center
05:00PM 41.7911 -77.5369 103° East 447 514 21,000 -600 Descending New York Center
05:01PM 41.7669 -77.3731 101° East 447 514 20,000 -1,140 Descending New York Center
05:02PM 41.7400 -77.2175 103° East 442 509 18,800 -1,200 Descending New York Center
05:03PM 41.7114 -77.0536 103° East 425 489 17,700 -1,560 Descending New York Center
05:04PM 41.6875 -76.9153 103° East 402 463 15,700 -2,580 Descending New York Center
05:05PM 41.6633 -76.7742 103° East 389 448 12,700 -2,400 Descending New York Center
05:06PM 41.6406 -76.6444 103° East 375 432 11,000 -1,140 Descending New York Center
05:07PM 41.6194 -76.5231 103° East 354 407 10,400 -840 Descending New York Center
05:08PM 41.6017 -76.4189 103° East 308 354 9,400 -720 Descending New York Center
05:09PM 41.5872 -76.3289 102° East 279 321 9,000 -720 Descending New York Center
05:10PM 41.5689 -76.2303 104° East 274 315 8,100 -1,500 Descending New York Center
05:11PM 41.5569 -76.1242 99° East 261 300 6,100 -1,860 Descending New York Center
05:12PM 41.5508 -76.0267 95° East 261 300 4,400 -1,080 Descending New York Center
05:13PM 41.5467 -75.9319 93° East 261 300 4,000 -240 Descending New York Center
05:14PM 41.5397 -75.8511 97° East 256 295 4,000  Level New York Center
05:15PM 41.5350 -75.7675 94° East 240 276 4,000  Level New York Center
05:16PM 41.5306 -75.6758 94° East 227 261 4,000  Level New York Center
05:17PM 41.5142 -75.6164 110° East 209 241 4,000 -300 Level New York Center
05:18PM 41.4581 -75.6178 181° South 151 174 3,500 -660 Descending New York Center
05:19PM 41.4211 -75.6511 214° Southwest 134 154 2,800 -780 Descending New York Center